sensor_id;sensor_type;location;lat;lon;timestamp;temperature;humidity
20487;DHT22;10402;49.012;8.370;2023-12-07T00:02:10;6.40;93.90
20487;DHT22;10402;49.012;8.370;2023-12-07T00:04:37;6.40;93.90
20487;DHT22;10402;49.012;8.370;2023-12-07T00:07:03;6.40;93.90
20487;DHT22;10402;49.012;8.370;2023-12-07T00:09:28;6.40;93.90
20487;DHT22;10402;49.012;8.370;2023-12-07T00:11:54;6.40;93.80
20487;DHT22;10402;49.012;8.370;2023-12-07T00:14:20;6.40;94.00
20487;DHT22;10402;49.012;8.370;2023-12-07T00:16:45;6.40;93.70
20487;DHT22;10402;49.012;8.370;2023-12-07T00:19:11;6.40;93.70
20487;DHT22;10402;49.012;8.370;2023-12-07T00:21:36;6.40;94.00
20487;DHT22;10402;49.012;8.370;2023-12-07T00:24:02;6.30;93.60
20487;DHT22;10402;49.012;8.370;2023-12-07T00:26:28;6.30;93.60
20487;DHT22;10402;49.012;8.370;2023-12-07T00:28:53;6.30;93.60
20487;DHT22;10402;49.012;8.370;2023-12-07T00:31:19;6.30;93.50
20487;DHT22;10402;49.012;8.370;2023-12-07T00:33:45;6.30;93.50
20487;DHT22;10402;49.012;8.370;2023-12-07T00:36:11;6.30;93.50
20487;DHT22;10402;49.012;8.370;2023-12-07T00:38:38;6.40;93.40
20487;DHT22;10402;49.012;8.370;2023-12-07T00:41:03;6.30;93.40
20487;DHT22;10402;49.012;8.370;2023-12-07T00:43:29;6.30;93.40
20487;DHT22;10402;49.012;8.370;2023-12-07T00:45:55;6.30;93.40
20487;DHT22;10402;49.012;8.370;2023-12-07T00:48:20;6.30;93.40
20487;DHT22;10402;49.012;8.370;2023-12-07T00:50:46;6.30;93.40
20487;DHT22;10402;49.012;8.370;2023-12-07T00:53:12;6.30;93.40
20487;DHT22;10402;49.012;8.370;2023-12-07T00:55:38;6.30;93.30
20487;DHT22;10402;49.012;8.370;2023-12-07T00:58:05;6.30;93.30
20487;DHT22;10402;49.012;8.370;2023-12-07T01:00:31;6.40;93.30
20487;DHT22;10402;49.012;8.370;2023-12-07T01:02:56;6.40;93.20
20487;DHT22;10402;49.012;8.370;2023-12-07T01:05:22;6.30;93.10
20487;DHT22;10402;49.012;8.370;2023-12-07T01:07:47;6.30;93.10
20487;DHT22;10402;49.012;8.370;2023-12-07T01:10:13;6.30;93.00
20487;DHT22;10402;49.012;8.370;2023-12-07T01:12:39;6.30;93.00
20487;DHT22;10402;49.012;8.370;2023-12-07T01:15:05;6.30;93.10
20487;DHT22;10402;49.012;8.370;2023-12-07T01:17:31;6.30;93.00
20487;DHT22;10402;49.012;8.370;2023-12-07T01:19:56;6.30;93.00
20487;DHT22;10402;49.012;8.370;2023-12-07T01:22:22;6.30;92.80
20487;DHT22;10402;49.012;8.370;2023-12-07T01:24:47;6.20;92.80
20487;DHT22;10402;49.012;8.370;2023-12-07T01:27:13;6.20;93.00
20487;DHT22;10402;49.012;8.370;2023-12-07T01:29:39;6.20;93.30
20487;DHT22;10402;49.012;8.370;2023-12-07T01:32:04;6.20;93.00
20487;DHT22;10402;49.012;8.370;2023-12-07T01:34:31;6.20;93.00
20487;DHT22;10402;49.012;8.370;2023-12-07T01:36:58;6.20;92.90
20487;DHT22;10402;49.012;8.370;2023-12-07T01:39:23;6.10;92.80
20487;DHT22;10402;49.012;8.370;2023-12-07T01:41:50;6.10;92.80
20487;DHT22;10402;49.012;8.370;2023-12-07T01:44:15;6.10;92.70
20487;DHT22;10402;49.012;8.370;2023-12-07T01:46:41;6.10;92.70
20487;DHT22;10402;49.012;8.370;2023-12-07T01:49:07;6.10;92.80
20487;DHT22;10402;49.012;8.370;2023-12-07T01:51:32;6.10;92.80
20487;DHT22;10402;49.012;8.370;2023-12-07T01:53:58;6.10;92.80
20487;DHT22;10402;49.012;8.370;2023-12-07T01:56:25;6.10;92.80
20487;DHT22;10402;49.012;8.370;2023-12-07T01:58:51;6.00;92.80
20487;DHT22;10402;49.012;8.370;2023-12-07T02:01:17;6.00;92.80
20487;DHT22;10402;49.012;8.370;2023-12-07T02:03:43;6.00;92.80
20487;DHT22;10402;49.012;8.370;2023-12-07T02:06:08;5.90;92.70
20487;DHT22;10402;49.012;8.370;2023-12-07T02:08:36;6.00;92.80
20487;DHT22;10402;49.012;8.370;2023-12-07T02:11:09;5.90;92.80
20487;DHT22;10402;49.012;8.370;2023-12-07T02:13:40;5.80;92.80
20487;DHT22;10402;49.012;8.370;2023-12-07T02:16:15;5.80;93.00
20487;DHT22;10402;49.012;8.370;2023-12-07T02:19:01;5.80;93.00
20487;DHT22;10402;49.012;8.370;2023-12-07T02:24:33;5.80;92.90
20487;DHT22;10402;49.012;8.370;2023-12-07T02:27:02;5.70;92.80
20487;DHT22;10402;49.012;8.370;2023-12-07T02:29:28;5.70;92.80
20487;DHT22;10402;49.012;8.370;2023-12-07T02:31:53;5.70;92.90
20487;DHT22;10402;49.012;8.370;2023-12-07T02:34:19;5.70;93.00
20487;DHT22;10402;49.012;8.370;2023-12-07T02:36:46;5.70;93.20
20487;DHT22;10402;49.012;8.370;2023-12-07T02:39:13;5.60;93.10
20487;DHT22;10402;49.012;8.370;2023-12-07T02:41:39;5.60;93.20
20487;DHT22;10402;49.012;8.370;2023-12-07T02:44:06;5.60;93.10
20487;DHT22;10402;49.012;8.370;2023-12-07T02:46:33;5.60;93.00
20487;DHT22;10402;49.012;8.370;2023-12-07T02:48:59;5.60;93.00
20487;DHT22;10402;49.012;8.370;2023-12-07T02:51:24;5.50;92.90
20487;DHT22;10402;49.012;8.370;2023-12-07T02:53:50;5.50;92.90
20487;DHT22;10402;49.012;8.370;2023-12-07T02:56:15;5.50;93.00
20487;DHT22;10402;49.012;8.370;2023-12-07T02:58:41;5.50;93.00
20487;DHT22;10402;49.012;8.370;2023-12-07T03:01:06;5.40;92.90
20487;DHT22;10402;49.012;8.370;2023-12-07T03:03:33;5.40;92.90
20487;DHT22;10402;49.012;8.370;2023-12-07T03:05:58;5.40;92.90
20487;DHT22;10402;49.012;8.370;2023-12-07T03:08:24;5.30;92.90
20487;DHT22;10402;49.012;8.370;2023-12-07T03:10:50;5.30;93.10
20487;DHT22;10402;49.012;8.370;2023-12-07T03:13:15;5.30;93.00
20487;DHT22;10402;49.012;8.370;2023-12-07T03:15:41;5.30;93.10
20487;DHT22;10402;49.012;8.370;2023-12-07T03:18:06;5.30;93.20
20487;DHT22;10402;49.012;8.370;2023-12-07T03:20:34;5.30;93.40
20487;DHT22;10402;49.012;8.370;2023-12-07T03:22:59;5.30;93.40
20487;DHT22;10402;49.012;8.370;2023-12-07T03:25:25;5.30;93.30
20487;DHT22;10402;49.012;8.370;2023-12-07T03:27:50;5.30;93.10
20487;DHT22;10402;49.012;8.370;2023-12-07T03:30:16;5.30;93.10
20487;DHT22;10402;49.012;8.370;2023-12-07T03:32:42;5.20;93.10
20487;DHT22;10402;49.012;8.370;2023-12-07T03:35:07;5.30;93.30
20487;DHT22;10402;49.012;8.370;2023-12-07T03:37:33;5.20;93.30
20487;DHT22;10402;49.012;8.370;2023-12-07T03:39:58;5.20;93.30
20487;DHT22;10402;49.012;8.370;2023-12-07T03:42:24;5.20;93.40
20487;DHT22;10402;49.012;8.370;2023-12-07T03:44:49;5.20;93.30
20487;DHT22;10402;49.012;8.370;2023-12-07T03:47:15;5.20;93.30
20487;DHT22;10402;49.012;8.370;2023-12-07T03:49:40;5.20;93.30
20487;DHT22;10402;49.012;8.370;2023-12-07T03:52:07;5.10;93.30
20487;DHT22;10402;49.012;8.370;2023-12-07T03:54:32;5.10;93.40
20487;DHT22;10402;49.012;8.370;2023-12-07T03:56:58;5.10;93.40
20487;DHT22;10402;49.012;8.370;2023-12-07T03:59:23;5.10;93.40
20487;DHT22;10402;49.012;8.370;2023-12-07T04:01:49;5.10;93.60
20487;DHT22;10402;49.012;8.370;2023-12-07T04:04:14;5.10;93.80
20487;DHT22;10402;49.012;8.370;2023-12-07T04:06:40;5.10;93.70
20487;DHT22;10402;49.012;8.370;2023-12-07T04:09:06;5.10;93.70
20487;DHT22;10402;49.012;8.370;2023-12-07T04:11:31;5.10;93.70
20487;DHT22;10402;49.012;8.370;2023-12-07T04:13:57;5.00;93.60
20487;DHT22;10402;49.012;8.370;2023-12-07T04:16:22;5.00;93.50
20487;DHT22;10402;49.012;8.370;2023-12-07T04:18:48;5.00;93.50
20487;DHT22;10402;49.012;8.370;2023-12-07T04:21:14;5.00;93.60
20487;DHT22;10402;49.012;8.370;2023-12-07T04:23:39;5.00;93.70
20487;DHT22;10402;49.012;8.370;2023-12-07T04:26:05;4.90;93.50
20487;DHT22;10402;49.012;8.370;2023-12-07T04:28:31;4.90;93.40
20487;DHT22;10402;49.012;8.370;2023-12-07T04:30:56;4.90;93.40
20487;DHT22;10402;49.012;8.370;2023-12-07T04:33:22;4.80;93.30
20487;DHT22;10402;49.012;8.370;2023-12-07T04:35:48;4.80;93.30
20487;DHT22;10402;49.012;8.370;2023-12-07T04:38:14;4.80;93.30
20487;DHT22;10402;49.012;8.370;2023-12-07T04:40:39;4.80;93.30
20487;DHT22;10402;49.012;8.370;2023-12-07T04:43:07;4.70;93.20
20487;DHT22;10402;49.012;8.370;2023-12-07T04:45:32;4.70;93.30
20487;DHT22;10402;49.012;8.370;2023-12-07T04:47:58;4.70;93.30
20487;DHT22;10402;49.012;8.370;2023-12-07T04:50:25;4.70;93.30
20487;DHT22;10402;49.012;8.370;2023-12-07T04:52:51;4.70;93.40
20487;DHT22;10402;49.012;8.370;2023-12-07T04:55:16;4.70;93.50
20487;DHT22;10402;49.012;8.370;2023-12-07T04:57:42;4.70;93.30
20487;DHT22;10402;49.012;8.370;2023-12-07T05:00:08;4.70;93.30
20487;DHT22;10402;49.012;8.370;2023-12-07T05:02:37;4.70;93.30
20487;DHT22;10402;49.012;8.370;2023-12-07T05:05:03;4.60;93.10
20487;DHT22;10402;49.012;8.370;2023-12-07T05:07:28;4.60;93.20
20487;DHT22;10402;49.012;8.370;2023-12-07T05:09:54;4.60;93.20
20487;DHT22;10402;49.012;8.370;2023-12-07T05:12:19;4.50;93.20
20487;DHT22;10402;49.012;8.370;2023-12-07T05:14:45;4.60;93.30
20487;DHT22;10402;49.012;8.370;2023-12-07T05:17:10;4.50;93.10
20487;DHT22;10402;49.012;8.370;2023-12-07T05:19:36;4.50;93.10
20487;DHT22;10402;49.012;8.370;2023-12-07T05:22:01;4.50;93.10
20487;DHT22;10402;49.012;8.370;2023-12-07T05:24:27;4.40;93.20
20487;DHT22;10402;49.012;8.370;2023-12-07T05:26:53;4.40;93.20
20487;DHT22;10402;49.012;8.370;2023-12-07T05:29:19;4.40;93.20
20487;DHT22;10402;49.012;8.370;2023-12-07T05:31:44;4.40;93.10
20487;DHT22;10402;49.012;8.370;2023-12-07T05:34:10;4.40;93.10
20487;DHT22;10402;49.012;8.370;2023-12-07T05:36:36;4.40;93.20
20487;DHT22;10402;49.012;8.370;2023-12-07T05:39:01;4.30;93.00
20487;DHT22;10402;49.012;8.370;2023-12-07T05:41:27;4.30;93.00
20487;DHT22;10402;49.012;8.370;2023-12-07T05:43:53;4.30;92.90
20487;DHT22;10402;49.012;8.370;2023-12-07T05:46:19;4.30;93.10
20487;DHT22;10402;49.012;8.370;2023-12-07T05:48:45;4.20;93.10
20487;DHT22;10402;49.012;8.370;2023-12-07T05:51:14;4.20;93.10
20487;DHT22;10402;49.012;8.370;2023-12-07T05:53:40;4.20;93.10
20487;DHT22;10402;49.012;8.370;2023-12-07T05:56:06;4.20;93.10
20487;DHT22;10402;49.012;8.370;2023-12-07T05:58:31;4.20;93.00
20487;DHT22;10402;49.012;8.370;2023-12-07T06:00:59;4.20;93.00
20487;DHT22;10402;49.012;8.370;2023-12-07T06:03:25;4.20;92.90
20487;DHT22;10402;49.012;8.370;2023-12-07T06:05:51;4.20;92.90
20487;DHT22;10402;49.012;8.370;2023-12-07T06:08:17;4.20;92.90
20487;DHT22;10402;49.012;8.370;2023-12-07T06:10:42;4.20;92.90
20487;DHT22;10402;49.012;8.370;2023-12-07T06:13:08;4.10;92.90
20487;DHT22;10402;49.012;8.370;2023-12-07T06:15:33;4.10;93.10
20487;DHT22;10402;49.012;8.370;2023-12-07T06:17:59;4.10;93.10
20487;DHT22;10402;49.012;8.370;2023-12-07T06:20:25;4.10;93.10
20487;DHT22;10402;49.012;8.370;2023-12-07T06:22:50;4.10;93.10
20487;DHT22;10402;49.012;8.370;2023-12-07T06:25:16;4.10;93.10
20487;DHT22;10402;49.012;8.370;2023-12-07T06:27:41;4.10;92.90
20487;DHT22;10402;49.012;8.370;2023-12-07T06:30:07;4.10;92.90
20487;DHT22;10402;49.012;8.370;2023-12-07T06:32:33;4.10;92.90
20487;DHT22;10402;49.012;8.370;2023-12-07T06:34:59;4.10;92.90
20487;DHT22;10402;49.012;8.370;2023-12-07T06:37:25;4.00;92.80
20487;DHT22;10402;49.012;8.370;2023-12-07T06:39:50;4.00;92.80
20487;DHT22;10402;49.012;8.370;2023-12-07T06:42:16;4.00;92.80
20487;DHT22;10402;49.012;8.370;2023-12-07T06:44:48;4.00;92.80
20487;DHT22;10402;49.012;8.370;2023-12-07T06:47:14;4.00;92.80
20487;DHT22;10402;49.012;8.370;2023-12-07T06:49:40;4.00;92.80
20487;DHT22;10402;49.012;8.370;2023-12-07T06:52:06;4.00;92.80
20487;DHT22;10402;49.012;8.370;2023-12-07T06:54:31;3.90;92.80
20487;DHT22;10402;49.012;8.370;2023-12-07T06:56:57;3.90;92.80
20487;DHT22;10402;49.012;8.370;2023-12-07T06:59:22;4.00;92.90
20487;DHT22;10402;49.012;8.370;2023-12-07T07:01:48;4.00;92.90
20487;DHT22;10402;49.012;8.370;2023-12-07T07:04:14;3.90;92.90
20487;DHT22;10402;49.012;8.370;2023-12-07T07:06:42;3.90;93.00
20487;DHT22;10402;49.012;8.370;2023-12-07T07:09:08;3.90;93.00
20487;DHT22;10402;49.012;8.370;2023-12-07T07:11:34;3.90;93.00
20487;DHT22;10402;49.012;8.370;2023-12-07T07:14:00;3.90;93.00
20487;DHT22;10402;49.012;8.370;2023-12-07T07:16:26;3.90;93.00
20487;DHT22;10402;49.012;8.370;2023-12-07T07:18:51;4.00;93.00
20487;DHT22;10402;49.012;8.370;2023-12-07T07:21:17;4.00;93.10
20487;DHT22;10402;49.012;8.370;2023-12-07T07:23:44;4.00;93.00
20487;DHT22;10402;49.012;8.370;2023-12-07T07:26:10;4.00;93.00
20487;DHT22;10402;49.012;8.370;2023-12-07T07:28:35;3.90;93.10
20487;DHT22;10402;49.012;8.370;2023-12-07T07:31:01;3.90;93.10
20487;DHT22;10402;49.012;8.370;2023-12-07T07:33:28;3.90;93.10
20487;DHT22;10402;49.012;8.370;2023-12-07T07:35:53;3.90;93.20
20487;DHT22;10402;49.012;8.370;2023-12-07T07:38:19;3.90;93.20
20487;DHT22;10402;49.012;8.370;2023-12-07T07:40:44;3.80;93.10
20487;DHT22;10402;49.012;8.370;2023-12-07T07:43:11;3.80;93.10
20487;DHT22;10402;49.012;8.370;2023-12-07T07:45:36;3.70;93.10
20487;DHT22;10402;49.012;8.370;2023-12-07T07:48:02;3.70;93.20
20487;DHT22;10402;49.012;8.370;2023-12-07T07:50:27;3.70;93.10
20487;DHT22;10402;49.012;8.370;2023-12-07T07:52:55;3.60;93.00
20487;DHT22;10402;49.012;8.370;2023-12-07T07:55:20;3.50;93.10
20487;DHT22;10402;49.012;8.370;2023-12-07T07:57:46;3.50;93.40
20487;DHT22;10402;49.012;8.370;2023-12-07T08:00:12;3.60;93.40
20487;DHT22;10402;49.012;8.370;2023-12-07T08:02:38;3.60;93.40
20487;DHT22;10402;49.012;8.370;2023-12-07T08:05:04;3.60;93.40
20487;DHT22;10402;49.012;8.370;2023-12-07T08:07:29;3.60;93.20
20487;DHT22;10402;49.012;8.370;2023-12-07T08:09:55;3.60;93.30
20487;DHT22;10402;49.012;8.370;2023-12-07T08:12:20;3.60;93.40
20487;DHT22;10402;49.012;8.370;2023-12-07T08:14:48;3.60;93.50
20487;DHT22;10402;49.012;8.370;2023-12-07T08:17:14;3.60;93.40
20487;DHT22;10402;49.012;8.370;2023-12-07T08:19:41;3.60;93.30
20487;DHT22;10402;49.012;8.370;2023-12-07T08:22:07;3.50;93.40
20487;DHT22;10402;49.012;8.370;2023-12-07T08:24:33;3.50;93.90
20487;DHT22;10402;49.012;8.370;2023-12-07T08:26:59;3.60;93.60
20487;DHT22;10402;49.012;8.370;2023-12-07T08:29:25;3.60;93.60
20487;DHT22;10402;49.012;8.370;2023-12-07T08:31:50;3.60;93.70
20487;DHT22;10402;49.012;8.370;2023-12-07T08:34:16;3.60;93.70
20487;DHT22;10402;49.012;8.370;2023-12-07T08:36:42;3.70;93.80
20487;DHT22;10402;49.012;8.370;2023-12-07T08:39:07;3.60;93.80
20487;DHT22;10402;49.012;8.370;2023-12-07T08:41:35;3.70;94.10
20487;DHT22;10402;49.012;8.370;2023-12-07T08:44:01;3.70;94.10
20487;DHT22;10402;49.012;8.370;2023-12-07T08:46:27;3.80;94.10
20487;DHT22;10402;49.012;8.370;2023-12-07T08:48:52;3.80;94.00
20487;DHT22;10402;49.012;8.370;2023-12-07T08:51:19;3.80;93.90
20487;DHT22;10402;49.012;8.370;2023-12-07T08:53:44;3.80;94.10
20487;DHT22;10402;49.012;8.370;2023-12-07T08:56:10;3.80;94.20
20487;DHT22;10402;49.012;8.370;2023-12-07T08:58:38;3.90;94.10
20487;DHT22;10402;49.012;8.370;2023-12-07T09:01:04;3.90;93.90
20487;DHT22;10402;49.012;8.370;2023-12-07T09:03:30;3.90;93.90
20487;DHT22;10402;49.012;8.370;2023-12-07T09:05:57;3.90;93.90
20487;DHT22;10402;49.012;8.370;2023-12-07T09:08:23;4.00;93.80
20487;DHT22;10402;49.012;8.370;2023-12-07T09:10:49;4.00;93.60
20487;DHT22;10402;49.012;8.370;2023-12-07T09:13:19;4.00;93.60
20487;DHT22;10402;49.012;8.370;2023-12-07T09:15:44;3.90;93.60
20487;DHT22;10402;49.012;8.370;2023-12-07T09:18:10;3.90;93.60
20487;DHT22;10402;49.012;8.370;2023-12-07T09:20:36;3.90;93.60
20487;DHT22;10402;49.012;8.370;2023-12-07T09:23:03;3.90;93.60
20487;DHT22;10402;49.012;8.370;2023-12-07T09:25:29;4.00;93.60
20487;DHT22;10402;49.012;8.370;2023-12-07T09:27:55;4.00;93.50
20487;DHT22;10402;49.012;8.370;2023-12-07T09:30:21;4.00;93.50
20487;DHT22;10402;49.012;8.370;2023-12-07T09:32:47;4.00;93.40
20487;DHT22;10402;49.012;8.370;2023-12-07T09:35:13;4.00;93.40
20487;DHT22;10402;49.012;8.370;2023-12-07T09:37:44;4.10;93.50
20487;DHT22;10402;49.012;8.370;2023-12-07T09:40:15;4.10;93.30
20487;DHT22;10402;49.012;8.370;2023-12-07T09:42:42;4.20;93.10
20487;DHT22;10402;49.012;8.370;2023-12-07T09:45:08;4.20;93.10
20487;DHT22;10402;49.012;8.370;2023-12-07T09:47:34;4.20;92.90
20487;DHT22;10402;49.012;8.370;2023-12-07T09:50:02;4.20;92.90
20487;DHT22;10402;49.012;8.370;2023-12-07T09:52:28;4.20;92.90
20487;DHT22;10402;49.012;8.370;2023-12-07T09:54:55;4.20;92.90
20487;DHT22;10402;49.012;8.370;2023-12-07T09:57:22;4.20;92.80
20487;DHT22;10402;49.012;8.370;2023-12-07T09:59:48;4.20;92.80
20487;DHT22;10402;49.012;8.370;2023-12-07T10:02:14;4.30;92.70
20487;DHT22;10402;49.012;8.370;2023-12-07T10:04:39;4.30;92.60
20487;DHT22;10402;49.012;8.370;2023-12-07T10:07:05;4.30;92.30
20487;DHT22;10402;49.012;8.370;2023-12-07T10:09:37;4.30;92.40
20487;DHT22;10402;49.012;8.370;2023-12-07T10:12:04;4.40;92.50
20487;DHT22;10402;49.012;8.370;2023-12-07T10:14:31;4.50;92.20
20487;DHT22;10402;49.012;8.370;2023-12-07T10:16:56;4.60;92.50
20487;DHT22;10402;49.012;8.370;2023-12-07T10:19:23;4.60;92.00
20487;DHT22;10402;49.012;8.370;2023-12-07T10:21:49;4.60;91.80
20487;DHT22;10402;49.012;8.370;2023-12-07T10:24:19;4.70;91.70
20487;DHT22;10402;49.012;8.370;2023-12-07T10:26:45;4.80;91.60
20487;DHT22;10402;49.012;8.370;2023-12-07T10:29:12;4.80;91.40
20487;DHT22;10402;49.012;8.370;2023-12-07T10:31:38;4.90;91.20
20487;DHT22;10402;49.012;8.370;2023-12-07T10:34:05;4.90;90.80
20487;DHT22;10402;49.012;8.370;2023-12-07T10:36:31;4.90;90.80
20487;DHT22;10402;49.012;8.370;2023-12-07T10:38:57;5.00;90.50
20487;DHT22;10402;49.012;8.370;2023-12-07T10:41:24;5.00;90.50
20487;DHT22;10402;49.012;8.370;2023-12-07T10:43:56;5.00;90.50
20487;DHT22;10402;49.012;8.370;2023-12-07T10:46:23;5.10;90.50
20487;DHT22;10402;49.012;8.370;2023-12-07T10:48:54;5.20;90.30
20487;DHT22;10402;49.012;8.370;2023-12-07T10:53:54;5.20;89.70
20487;DHT22;10402;49.012;8.370;2023-12-07T10:56:38;5.30;88.20
20487;DHT22;10402;49.012;8.370;2023-12-07T10:59:06;5.30;87.80
20487;DHT22;10402;49.012;8.370;2023-12-07T11:01:34;5.40;87.60
20487;DHT22;10402;49.012;8.370;2023-12-07T11:04:01;5.40;87.40
20487;DHT22;10402;49.012;8.370;2023-12-07T11:06:27;5.40;86.90
20487;DHT22;10402;49.012;8.370;2023-12-07T11:08:58;5.50;86.70
20487;DHT22;10402;49.012;8.370;2023-12-07T11:11:27;5.60;87.10
20487;DHT22;10402;49.012;8.370;2023-12-07T11:14:01;5.70;86.70
20487;DHT22;10402;49.012;8.370;2023-12-07T11:16:40;5.70;85.50
20487;DHT22;10402;49.012;8.370;2023-12-07T11:22:01;5.80;84.90
20487;DHT22;10402;49.012;8.370;2023-12-07T11:24:26;5.80;84.00
20487;DHT22;10402;49.012;8.370;2023-12-07T11:26:53;5.90;84.10
20487;DHT22;10402;49.012;8.370;2023-12-07T11:29:25;5.90;83.80
20487;DHT22;10402;49.012;8.370;2023-12-07T11:31:51;6.00;82.90
20487;DHT22;10402;49.012;8.370;2023-12-07T11:34:35;6.10;82.80
20487;DHT22;10402;49.012;8.370;2023-12-07T11:37:02;6.10;81.60
20487;DHT22;10402;49.012;8.370;2023-12-07T11:39:29;6.10;81.00
20487;DHT22;10402;49.012;8.370;2023-12-07T11:41:55;6.20;80.80
20487;DHT22;10402;49.012;8.370;2023-12-07T11:44:32;6.20;79.50
20487;DHT22;10402;49.012;8.370;2023-12-07T11:46:58;6.20;80.00
20487;DHT22;10402;49.012;8.370;2023-12-07T11:49:23;6.20;79.70
20487;DHT22;10402;49.012;8.370;2023-12-07T11:51:49;6.30;79.60
20487;DHT22;10402;49.012;8.370;2023-12-07T11:54:15;6.30;79.90
20487;DHT22;10402;49.012;8.370;2023-12-07T11:56:42;6.40;79.80
20487;DHT22;10402;49.012;8.370;2023-12-07T11:59:08;6.40;79.70
20487;DHT22;10402;49.012;8.370;2023-12-07T12:01:33;6.50;79.30
20487;DHT22;10402;49.012;8.370;2023-12-07T12:03:59;6.50;78.10
20487;DHT22;10402;49.012;8.370;2023-12-07T12:06:24;6.60;77.30
20487;DHT22;10402;49.012;8.370;2023-12-07T12:08:51;6.70;77.40
20487;DHT22;10402;49.012;8.370;2023-12-07T12:11:17;6.70;77.10
20487;DHT22;10402;49.012;8.370;2023-12-07T12:13:45;6.80;76.20
20487;DHT22;10402;49.012;8.370;2023-12-07T12:16:11;6.80;75.40
20487;DHT22;10402;49.012;8.370;2023-12-07T12:18:37;6.80;75.10
20487;DHT22;10402;49.012;8.370;2023-12-07T12:21:03;6.80;75.00
20487;DHT22;10402;49.012;8.370;2023-12-07T12:23:29;6.90;74.80
20487;DHT22;10402;49.012;8.370;2023-12-07T12:25:55;6.90;74.00
20487;DHT22;10402;49.012;8.370;2023-12-07T12:28:21;6.90;72.50
20487;DHT22;10402;49.012;8.370;2023-12-07T12:30:48;6.90;72.30
20487;DHT22;10402;49.012;8.370;2023-12-07T12:33:15;6.90;71.10
20487;DHT22;10402;49.012;8.370;2023-12-07T12:35:41;6.90;71.40
20487;DHT22;10402;49.012;8.370;2023-12-07T12:38:11;7.00;71.80
20487;DHT22;10402;49.012;8.370;2023-12-07T12:40:37;7.00;71.70
20487;DHT22;10402;49.012;8.370;2023-12-07T12:43:02;7.10;71.60
20487;DHT22;10402;49.012;8.370;2023-12-07T12:45:28;7.10;71.30
20487;DHT22;10402;49.012;8.370;2023-12-07T12:47:54;7.10;70.70
20487;DHT22;10402;49.012;8.370;2023-12-07T12:50:34;7.10;70.50
20487;DHT22;10402;49.012;8.370;2023-12-07T12:53:03;7.10;70.30
20487;DHT22;10402;49.012;8.370;2023-12-07T12:55:37;7.10;70.20
20487;DHT22;10402;49.012;8.370;2023-12-07T12:58:05;7.10;69.60
20487;DHT22;10402;49.012;8.370;2023-12-07T13:00:31;7.20;69.00
20487;DHT22;10402;49.012;8.370;2023-12-07T13:02:59;7.20;69.20
20487;DHT22;10402;49.012;8.370;2023-12-07T13:05:25;7.20;68.20
20487;DHT22;10402;49.012;8.370;2023-12-07T13:07:51;7.20;68.10
20487;DHT22;10402;49.012;8.370;2023-12-07T13:10:16;7.20;68.30
20487;DHT22;10402;49.012;8.370;2023-12-07T13:12:42;7.30;69.40
20487;DHT22;10402;49.012;8.370;2023-12-07T13:15:09;7.30;68.80
20487;DHT22;10402;49.012;8.370;2023-12-07T13:17:34;7.30;68.80
20487;DHT22;10402;49.012;8.370;2023-12-07T13:20:00;7.30;68.60
20487;DHT22;10402;49.012;8.370;2023-12-07T13:22:26;7.30;68.40
20487;DHT22;10402;49.012;8.370;2023-12-07T13:24:51;7.30;68.20
20487;DHT22;10402;49.012;8.370;2023-12-07T13:27:17;7.30;67.90
20487;DHT22;10402;49.012;8.370;2023-12-07T13:29:43;7.30;68.30
20487;DHT22;10402;49.012;8.370;2023-12-07T13:32:08;7.30;67.70
20487;DHT22;10402;49.012;8.370;2023-12-07T13:34:35;7.30;67.90
20487;DHT22;10402;49.012;8.370;2023-12-07T13:37:01;7.40;67.50
20487;DHT22;10402;49.012;8.370;2023-12-07T13:39:26;7.40;66.90
20487;DHT22;10402;49.012;8.370;2023-12-07T13:41:54;7.40;67.30
20487;DHT22;10402;49.012;8.370;2023-12-07T13:44:19;7.40;67.60
20487;DHT22;10402;49.012;8.370;2023-12-07T13:46:45;7.40;67.70
20487;DHT22;10402;49.012;8.370;2023-12-07T13:49:11;7.40;67.60
20487;DHT22;10402;49.012;8.370;2023-12-07T13:51:38;7.40;67.80
20487;DHT22;10402;49.012;8.370;2023-12-07T13:54:03;7.40;67.80
20487;DHT22;10402;49.012;8.370;2023-12-07T13:56:29;7.40;67.80
20487;DHT22;10402;49.012;8.370;2023-12-07T13:58:54;7.40;67.00
20487;DHT22;10402;49.012;8.370;2023-12-07T14:01:20;7.30;67.00
20487;DHT22;10402;49.012;8.370;2023-12-07T14:03:46;7.30;67.10
20487;DHT22;10402;49.012;8.370;2023-12-07T14:06:19;7.30;67.40
20487;DHT22;10402;49.012;8.370;2023-12-07T14:08:46;7.30;67.50
20487;DHT22;10402;49.012;8.370;2023-12-07T14:11:11;7.30;67.70
20487;DHT22;10402;49.012;8.370;2023-12-07T14:13:38;7.20;67.60
20487;DHT22;10402;49.012;8.370;2023-12-07T14:16:04;7.20;67.70
20487;DHT22;10402;49.012;8.370;2023-12-07T14:18:29;7.20;67.70
20487;DHT22;10402;49.012;8.370;2023-12-07T14:20:55;7.20;68.00
20487;DHT22;10402;49.012;8.370;2023-12-07T14:23:21;7.20;68.20
20487;DHT22;10402;49.012;8.370;2023-12-07T14:25:48;7.20;68.20
20487;DHT22;10402;49.012;8.370;2023-12-07T14:28:16;7.10;68.20
20487;DHT22;10402;49.012;8.370;2023-12-07T14:30:42;7.10;68.40
20487;DHT22;10402;49.012;8.370;2023-12-07T14:33:08;7.10;68.40
20487;DHT22;10402;49.012;8.370;2023-12-07T14:35:33;7.10;68.90
20487;DHT22;10402;49.012;8.370;2023-12-07T14:37:59;7.10;70.00
20487;DHT22;10402;49.012;8.370;2023-12-07T14:40:24;7.00;71.10
20487;DHT22;10402;49.012;8.370;2023-12-07T14:42:50;7.00;71.80
20487;DHT22;10402;49.012;8.370;2023-12-07T14:45:15;7.00;73.50
20487;DHT22;10402;49.012;8.370;2023-12-07T14:47:41;6.90;74.70
20487;DHT22;10402;49.012;8.370;2023-12-07T14:50:07;6.80;75.40
20487;DHT22;10402;49.012;8.370;2023-12-07T14:52:32;6.70;76.10
20487;DHT22;10402;49.012;8.370;2023-12-07T14:54:59;6.70;76.90
20487;DHT22;10402;49.012;8.370;2023-12-07T14:57:25;6.60;77.60
20487;DHT22;10402;49.012;8.370;2023-12-07T14:59:50;6.60;78.30
20487;DHT22;10402;49.012;8.370;2023-12-07T15:02:18;6.50;78.70
20487;DHT22;10402;49.012;8.370;2023-12-07T15:04:44;6.50;79.20
20487;DHT22;10402;49.012;8.370;2023-12-07T15:07:09;6.40;79.80
20487;DHT22;10402;49.012;8.370;2023-12-07T15:09:35;6.30;80.20
20487;DHT22;10402;49.012;8.370;2023-12-07T15:12:02;6.30;81.50
20487;DHT22;10402;49.012;8.370;2023-12-07T15:14:28;6.20;81.10
20487;DHT22;10402;49.012;8.370;2023-12-07T15:16:54;6.20;81.60
20487;DHT22;10402;49.012;8.370;2023-12-07T15:19:20;6.10;82.10
20487;DHT22;10402;49.012;8.370;2023-12-07T15:21:45;6.10;82.20
20487;DHT22;10402;49.012;8.370;2023-12-07T15:24:11;6.00;82.40
20487;DHT22;10402;49.012;8.370;2023-12-07T15:26:40;6.00;83.00
20487;DHT22;10402;49.012;8.370;2023-12-07T15:29:06;5.90;83.10
20487;DHT22;10402;49.012;8.370;2023-12-07T15:31:33;5.80;83.50
20487;DHT22;10402;49.012;8.370;2023-12-07T15:33:58;5.80;83.80
20487;DHT22;10402;49.012;8.370;2023-12-07T15:36:24;5.80;84.00
20487;DHT22;10402;49.012;8.370;2023-12-07T15:38:50;5.70;84.30
20487;DHT22;10402;49.012;8.370;2023-12-07T15:41:15;5.70;84.70
20487;DHT22;10402;49.012;8.370;2023-12-07T15:43:41;5.70;85.30
20487;DHT22;10402;49.012;8.370;2023-12-07T15:46:06;5.70;85.50
20487;DHT22;10402;49.012;8.370;2023-12-07T15:48:32;5.70;85.60